Terminal Aerodrome Forecast
Issued by NWS Sterling, VA

Home | Current Version | Previous Version | Text Only | Print | Product List | Glossary On
Versions: 1 2 3 4 5 6 7 8 9 10 11 12 13 14 15 16 17 18 19 20 21 22 23 24 25 26 27
000
FTUS41 KLWX 212100 AAB
TAFIAD
TAF AMD
KIAD 212126Z 2121/2224 32013G18KT 6SM -SHRA BKN035
     FM220000 32010KT P6SM OVC050
     FM220600 33008KT 3SM -SHRA SCT008 OVC015
     FM221200 33012G17KT P6SM SCT008 OVC015
     FM221900 33016G22KT P6SM BKN025=

USA.gov is the U.S. government's official web portal to all federal, state and local government web resources and services.